Архив погоды в Верховье Лотты

Метеограмма Верховье Лотты
Вторник, 14 Августа
Время местн. Темп Ветер Видим Явления Облачность нижн/средн/верх Атм. давл. Влжн Точка росы ВНГО R Сост. почвы Tg s
Напр Скр Прв ур.ст ур.м изм
15:00 - +10.2° З,С-З 1 3 - - - 747 758 +0.9 78% +6.6° - - - - -
12:00 - +10° С 1 3 - - - 746 757 +0.8 74% +5.5° - - - - -
09:00 +7.9° С-З 1 2 30 км - преимущественно облачно 746 756 +0.8 93% +6.8° более 2.5 км 0 Влажная (без луж) - -
06:00 - +7° С 1 2 - - - 745 755 +0.8 86% +4.8° - - - - -
03:00 - +7.4° С 1 2 - - - 744 755 +0.8 94% +6.5° - - - - -
00:00 - +7.7° штиль 0 - - - - 743 754 +0.9 97% +7.2° - - - - -
Понедельник, 13 Августа
Время местн. Темп Ветер Видим Явления Облачность нижн/средн/верх Атм. давл. Влжн Точка росы ВНГО R Сост. почвы Tg s
Напр Скр Прв ур.ст ур.м изм
21:00 +8.1° С,С-В 2 3 15 км слабый ливневый дождь облачно 742 753 +0.9 93% +7.1° более 2.5 км 8 - - -
18:00 - +8.9° С-В 2 4 - - - 742 752 +1.4 94% +8° - - - - -
15:00 - +9.2° С-В 3 7 - - - 740 750 +1.7 96% +8.6° - - - - -
12:00 - +10.9° С-В 2 4 - - - 738 749 +1.4 93% +9.8° - - - - -
09:00 +10.7° С,С-В 1 3 20 км - облачно 737 747 +0.3 98% +10.4° более 2.5 км 9 Сырая (есть малые или большие лужи) - -
06:00 - +11.5° С,С-В 1 3 - - - 737 747 -0.5 99% +11.3° - - - - -
03:00 - +11.7° штиль 0 - - - - 737 747 -0.5 98% +11.4° - - - - -
00:00 - +12° В 1 1 - - - 738 748 -0.6 96% +11.4° - - - - -
Воскресенье, 12 Августа
Время местн. Темп Ветер Видим Явления Облачность нижн/средн/верх Атм. давл. Влжн Точка росы ВНГО R Сост. почвы Tg s
Напр Скр Прв ур.ст ур.м изм
21:00 +12.3° Ю-В 1 2 20 км - облачно 738 748 +0.2 96% +11.7° более 2.5 км 0.8 - - -
15:00 - +14.6° Ю-З 2 5 - - - 739 749 +0.2 72% +9.7° - - - - -
12:00 - +14.9° Ю-З 1 3 - - - 739 749 +0.3 68% +9° - - - - -
09:00 +13.5° Ю,Ю-З 1 3 50 км - преимущественно облачно 738 749 -0.1 74% +9° более 2.5 км 0 Влажная (без луж) - -
06:00 - +13° Ю-З 1 5 - - - 738 749 -0.5 80% +9.6° - - - - -
03:00 - +13.3° Ю-З 2 5 - - - 739 749 -0.5 84% +10.6° - - - - -
00:00 - +13.5° Ю,Ю-З 1 3 - - - 739 750 -0.5 87% +11.3° - - - - -
Суббота, 11 Августа
Время местн. Темп Ветер Видим Явления Облачность нижн/средн/верх Атм. давл. Влжн Точка росы ВНГО R Сост. почвы Tg s
Напр Скр Прв ур.ст ур.м изм
21:00 +15.3° Ю-З 3 9 50 км - преимущественно облачно 740 750 -0.5 75% +10.8° более 2.5 км 0 - - -
18:00 - +18.4° Ю-З 3 6 - - - 740 750 0 63% +11.3° - - - - -
15:00 - +19.7° Ю,Ю-З 2 4 - - - 740 750 -1.4 77% +15.5° - - - - -
12:00 - +13.9° В,С-В 1 2 - - - 742 752 -1.7 98% +13.6° - - - - -
09:00 +11.4° В 1 4 20 км слабый ливневый дождь облачно 744 754 -1.7 97% +10.9° более 2.5 км 0 Сырая (есть малые или большие лужи) - -